sensor_id;sensor_type;location;lat;lon;timestamp;pressure;altitude;pressure_sealevel;temperature;humidity
74524;BME280;63074;44.696;10.358;2024-01-07T00:02:20;98292.38;;;13.78;100.00
74524;BME280;63074;44.696;10.358;2024-01-07T00:04:46;98290.25;;;14.57;100.00
74524;BME280;63074;44.696;10.358;2024-01-07T00:07:13;98292.56;;;13.95;100.00
74524;BME280;63074;44.696;10.358;2024-01-07T00:09:39;98295.97;;;14.28;100.00
74524;BME280;63074;44.696;10.358;2024-01-07T00:12:05;98291.66;;;14.27;100.00
74524;BME280;63074;44.696;10.358;2024-01-07T00:14:31;98291.25;;;14.20;100.00
74524;BME280;63074;44.696;10.358;2024-01-07T00:16:58;98292.25;;;13.69;100.00
74524;BME280;63074;44.696;10.358;2024-01-07T00:19:24;98293.25;;;13.73;100.00
74524;BME280;63074;44.696;10.358;2024-01-07T00:21:50;98282.13;;;14.57;100.00
74524;BME280;63074;44.696;10.358;2024-01-07T00:24:17;98293.59;;;14.13;100.00
74524;BME280;63074;44.696;10.358;2024-01-07T00:26:43;98292.16;;;13.88;100.00
74524;BME280;63074;44.696;10.358;2024-01-07T00:29:09;98293.69;;;14.08;100.00
74524;BME280;63074;44.696;10.358;2024-01-07T00:31:35;98282.34;;;14.61;100.00
74524;BME280;63074;44.696;10.358;2024-01-07T00:34:01;98291.84;;;14.94;100.00
74524;BME280;63074;44.696;10.358;2024-01-07T00:36:27;98284.13;;;15.01;100.00
74524;BME280;63074;44.696;10.358;2024-01-07T00:38:54;98297.78;;;14.05;100.00
74524;BME280;63074;44.696;10.358;2024-01-07T00:41:20;98294.19;;;15.09;100.00
74524;BME280;63074;44.696;10.358;2024-01-07T00:43:46;98295.34;;;14.95;100.00
74524;BME280;63074;44.696;10.358;2024-01-07T00:46:12;98296.06;;;14.50;100.00
74524;BME280;63074;44.696;10.358;2024-01-07T00:48:38;98292.19;;;14.79;100.00
74524;BME280;63074;44.696;10.358;2024-01-07T00:51:05;98295.94;;;14.69;100.00
74524;BME280;63074;44.696;10.358;2024-01-07T00:53:31;98299.47;;;14.56;100.00
74524;BME280;63074;44.696;10.358;2024-01-07T00:55:57;98298.16;;;14.90;100.00
74524;BME280;63074;44.696;10.358;2024-01-07T00:58:23;98301.59;;;14.81;100.00
74524;BME280;63074;44.696;10.358;2024-01-07T01:00:50;98271.63;;;16.81;100.00
74524;BME280;63074;44.696;10.358;2024-01-07T01:03:17;98290.97;;;17.86;100.00
74524;BME280;63074;44.696;10.358;2024-01-07T01:05:43;98295.91;;;15.28;100.00
74524;BME280;63074;44.696;10.358;2024-01-07T01:08:09;98304.34;;;15.26;100.00
74524;BME280;63074;44.696;10.358;2024-01-07T01:10:36;98292.97;;;14.93;100.00
74524;BME280;63074;44.696;10.358;2024-01-07T01:13:02;98303.50;;;15.03;100.00
74524;BME280;63074;44.696;10.358;2024-01-07T01:15:28;98308.53;;;14.74;100.00
74524;BME280;63074;44.696;10.358;2024-01-07T01:17:54;98305.00;;;15.09;100.00
74524;BME280;63074;44.696;10.358;2024-01-07T01:20:21;98303.88;;;15.77;100.00
74524;BME280;63074;44.696;10.358;2024-01-07T01:22:47;98298.84;;;15.40;100.00
74524;BME280;63074;44.696;10.358;2024-01-07T01:25:13;98312.97;;;14.70;100.00
74524;BME280;63074;44.696;10.358;2024-01-07T01:27:39;98305.31;;;15.30;100.00
74524;BME280;63074;44.696;10.358;2024-01-07T01:30:06;98314.09;;;15.36;100.00
74524;BME280;63074;44.696;10.358;2024-01-07T01:32:32;98319.19;;;14.57;100.00
74524;BME280;63074;44.696;10.358;2024-01-07T01:34:58;98318.53;;;15.09;100.00
74524;BME280;63074;44.696;10.358;2024-01-07T01:37:25;98313.38;;;14.99;100.00
74524;BME280;63074;44.696;10.358;2024-01-07T01:39:51;98321.41;;;15.35;100.00
74524;BME280;63074;44.696;10.358;2024-01-07T01:42:17;98319.22;;;15.15;100.00
74524;BME280;63074;44.696;10.358;2024-01-07T01:44:43;98322.38;;;14.59;100.00
74524;BME280;63074;44.696;10.358;2024-01-07T01:47:11;98319.88;;;14.48;100.00
74524;BME280;63074;44.696;10.358;2024-01-07T01:49:37;98318.78;;;15.22;100.00
74524;BME280;63074;44.696;10.358;2024-01-07T01:52:04;98326.34;;;15.11;100.00
74524;BME280;63074;44.696;10.358;2024-01-07T01:54:31;98315.34;;;15.30;100.00
74524;BME280;63074;44.696;10.358;2024-01-07T01:56:57;98322.72;;;15.60;100.00
74524;BME280;63074;44.696;10.358;2024-01-07T01:59:24;98322.41;;;15.62;100.00
74524;BME280;63074;44.696;10.358;2024-01-07T02:01:51;98320.13;;;15.77;100.00
74524;BME280;63074;44.696;10.358;2024-01-07T02:04:18;98324.81;;;15.41;100.00
74524;BME280;63074;44.696;10.358;2024-01-07T02:06:45;98315.41;;;15.16;100.00
74524;BME280;63074;44.696;10.358;2024-01-07T02:09:12;98321.09;;;14.92;100.00
74524;BME280;63074;44.696;10.358;2024-01-07T02:11:38;98320.59;;;14.90;100.00
74524;BME280;63074;44.696;10.358;2024-01-07T02:14:05;98322.00;;;14.88;100.00
74524;BME280;63074;44.696;10.358;2024-01-07T02:16:31;98324.56;;;15.29;100.00
74524;BME280;63074;44.696;10.358;2024-01-07T02:18:57;98329.00;;;15.47;100.00
74524;BME280;63074;44.696;10.358;2024-01-07T02:21:23;98331.38;;;14.68;100.00
74524;BME280;63074;44.696;10.358;2024-01-07T02:23:49;98338.69;;;18.72;100.00
74524;BME280;63074;44.696;10.358;2024-01-07T02:26:16;98331.31;;;17.15;100.00
74524;BME280;63074;44.696;10.358;2024-01-07T02:28:42;98335.31;;;19.71;nan
74524;BME280;63074;44.696;10.358;2024-01-07T02:31:08;98334.25;;;20.33;nan
74524;BME280;63074;44.696;10.358;2024-01-07T02:33:34;98341.13;;;18.56;nan
74524;BME280;63074;44.696;10.358;2024-01-07T02:36:00;98336.97;;;19.30;nan
74524;BME280;63074;44.696;10.358;2024-01-07T02:38:26;98331.22;;;18.22;nan
74524;BME280;63074;44.696;10.358;2024-01-07T02:40:53;98331.56;;;17.83;nan
74524;BME280;63074;44.696;10.358;2024-01-07T02:43:19;98340.47;;;28.31;nan
74524;BME280;63074;44.696;10.358;2024-01-07T02:45:45;98330.66;;;18.17;nan
74524;BME280;63074;44.696;10.358;2024-01-07T02:48:11;98326.38;;;18.37;nan
74524;BME280;63074;44.696;10.358;2024-01-07T02:50:37;98327.56;;;17.63;nan
74524;BME280;63074;44.696;10.358;2024-01-07T02:53:04;98326.66;;;17.33;nan
74524;BME280;63074;44.696;10.358;2024-01-07T02:55:30;98326.53;;;17.12;nan
74524;BME280;63074;44.696;10.358;2024-01-07T02:57:56;98325.06;;;17.41;nan
74524;BME280;63074;44.696;10.358;2024-01-07T03:00:22;98315.66;;;17.21;nan
74524;BME280;63074;44.696;10.358;2024-01-07T03:02:48;98330.91;;;18.53;nan
74524;BME280;63074;44.696;10.358;2024-01-07T03:05:14;98326.53;;;18.40;nan
74524;BME280;63074;44.696;10.358;2024-01-07T03:07:41;98326.34;;;17.09;nan
74524;BME280;63074;44.696;10.358;2024-01-07T03:10:07;98349.78;;;15.15;nan
74524;BME280;63074;44.696;10.358;2024-01-07T03:12:33;98348.63;;;14.58;nan
74524;BME280;63074;44.696;10.358;2024-01-07T03:15:00;98340.41;;;14.99;nan
74524;BME280;63074;44.696;10.358;2024-01-07T03:17:26;98348.50;;;14.36;nan
74524;BME280;63074;44.696;10.358;2024-01-07T03:19:53;98347.88;;;13.98;nan
74524;BME280;63074;44.696;10.358;2024-01-07T03:22:19;98349.72;;;14.71;nan
74524;BME280;63074;44.696;10.358;2024-01-07T03:24:45;98341.16;;;14.77;nan
74524;BME280;63074;44.696;10.358;2024-01-07T03:27:11;98343.91;;;14.64;nan
74524;BME280;63074;44.696;10.358;2024-01-07T03:29:38;98342.31;;;14.35;nan
74524;BME280;63074;44.696;10.358;2024-01-07T03:32:05;98338.56;;;18.69;nan
74524;BME280;63074;44.696;10.358;2024-01-07T03:34:32;98353.97;;;15.97;nan
74524;BME280;63074;44.696;10.358;2024-01-07T03:36:58;98350.25;;;24.24;nan
74524;BME280;63074;44.696;10.358;2024-01-07T03:39:24;98356.06;;;15.69;nan
74524;BME280;63074;44.696;10.358;2024-01-07T03:41:55;98353.31;;;15.92;nan
74524;BME280;63074;44.696;10.358;2024-01-07T03:44:22;98357.28;;;18.32;nan
74524;BME280;63074;44.696;10.358;2024-01-07T03:46:48;98356.34;;;19.29;nan
74524;BME280;63074;44.696;10.358;2024-01-07T03:49:15;98350.44;;;17.79;nan
74524;BME280;63074;44.696;10.358;2024-01-07T03:51:41;98341.22;;;16.94;nan
74524;BME280;63074;44.696;10.358;2024-01-07T03:54:07;98341.50;;;17.36;nan
74524;BME280;63074;44.696;10.358;2024-01-07T03:56:33;98342.53;;;18.71;nan
74524;BME280;63074;44.696;10.358;2024-01-07T03:58:59;98340.84;;;18.49;nan
74524;BME280;63074;44.696;10.358;2024-01-07T04:01:26;98337.63;;;18.56;nan
74524;BME280;63074;44.696;10.358;2024-01-07T04:03:52;98344.88;;;19.02;nan
74524;BME280;63074;44.696;10.358;2024-01-07T04:06:18;98338.09;;;18.29;nan
74524;BME280;63074;44.696;10.358;2024-01-07T04:08:44;98338.97;;;18.12;nan
74524;BME280;63074;44.696;10.358;2024-01-07T04:11:10;98337.59;;;18.65;nan
74524;BME280;63074;44.696;10.358;2024-01-07T04:13:37;98336.09;;;18.08;nan
74524;BME280;63074;44.696;10.358;2024-01-07T04:16:03;98341.84;;;18.15;nan
74524;BME280;63074;44.696;10.358;2024-01-07T04:18:30;98338.69;;;18.05;nan
74524;BME280;63074;44.696;10.358;2024-01-07T04:20:56;98339.16;;;21.28;nan
74524;BME280;63074;44.696;10.358;2024-01-07T04:23:22;98342.66;;;20.03;nan
74524;BME280;63074;44.696;10.358;2024-01-07T04:25:48;98364.03;;;19.06;nan
74524;BME280;63074;44.696;10.358;2024-01-07T04:28:14;98351.09;;;17.07;nan
74524;BME280;63074;44.696;10.358;2024-01-07T04:30:40;98356.53;;;16.33;nan
74524;BME280;63074;44.696;10.358;2024-01-07T04:33:07;98354.69;;;16.11;nan
74524;BME280;63074;44.696;10.358;2024-01-07T04:35:33;98352.56;;;16.39;nan
74524;BME280;63074;44.696;10.358;2024-01-07T04:38:00;98349.81;;;20.08;nan
74524;BME280;63074;44.696;10.358;2024-01-07T04:40:26;98346.88;;;20.25;nan
74524;BME280;63074;44.696;10.358;2024-01-07T04:42:52;98356.16;;;19.34;nan
74524;BME280;63074;44.696;10.358;2024-01-07T04:45:18;98408.31;;;28.14;nan
74524;BME280;63074;44.696;10.358;2024-01-07T04:47:44;98371.97;;;16.81;nan
74524;BME280;63074;44.696;10.358;2024-01-07T04:50:10;98364.19;;;31.32;nan
74524;BME280;63074;44.696;10.358;2024-01-07T04:52:37;98488.41;;;41.50;nan
74524;BME280;63074;44.696;10.358;2024-01-07T04:55:03;98364.25;;;26.69;nan
74524;BME280;63074;44.696;10.358;2024-01-07T04:57:30;98372.34;;;24.31;nan
74524;BME280;63074;44.696;10.358;2024-01-07T04:59:56;98376.25;;;23.88;nan
74524;BME280;63074;44.696;10.358;2024-01-07T05:02:22;98367.13;;;22.72;nan
74524;BME280;63074;44.696;10.358;2024-01-07T05:04:49;98365.00;;;21.18;nan
74524;BME280;63074;44.696;10.358;2024-01-07T05:07:15;98363.66;;;24.29;nan
74524;BME280;63074;44.696;10.358;2024-01-07T05:09:42;98368.13;;;23.53;nan
74524;BME280;63074;44.696;10.358;2024-01-07T05:12:08;98363.84;;;22.66;nan
74524;BME280;63074;44.696;10.358;2024-01-07T05:14:34;98368.16;;;22.83;nan
74524;BME280;63074;44.696;10.358;2024-01-07T05:17:00;98372.00;;;21.72;nan
74524;BME280;63074;44.696;10.358;2024-01-07T05:19:27;98373.53;;;23.30;nan
74524;BME280;63074;44.696;10.358;2024-01-07T05:21:54;98373.47;;;22.92;nan
74524;BME280;63074;44.696;10.358;2024-01-07T05:24:20;98369.72;;;23.35;nan
74524;BME280;63074;44.696;10.358;2024-01-07T05:26:46;98372.50;;;22.84;nan
74524;BME280;63074;44.696;10.358;2024-01-07T05:29:12;98388.63;;;23.05;nan
74524;BME280;63074;44.696;10.358;2024-01-07T05:31:39;98372.28;;;22.42;nan
74524;BME280;63074;44.696;10.358;2024-01-07T05:34:06;98384.72;;;22.39;nan
74524;BME280;63074;44.696;10.358;2024-01-07T05:36:32;98385.13;;;22.57;nan
74524;BME280;63074;44.696;10.358;2024-01-07T05:38:58;98391.50;;;22.77;nan
74524;BME280;63074;44.696;10.358;2024-01-07T05:41:24;98399.81;;;24.12;nan
74524;BME280;63074;44.696;10.358;2024-01-07T05:43:51;98393.44;;;24.27;nan
74524;BME280;63074;44.696;10.358;2024-01-07T05:46:17;98406.91;;;29.86;nan
74524;BME280;63074;44.696;10.358;2024-01-07T05:48:45;98413.88;;;28.32;nan
74524;BME280;63074;44.696;10.358;2024-01-07T05:51:12;98415.31;;;27.83;nan
74524;BME280;63074;44.696;10.358;2024-01-07T05:53:39;98418.16;;;23.31;nan
74524;BME280;63074;44.696;10.358;2024-01-07T05:56:06;98401.66;;;23.11;nan
74524;BME280;63074;44.696;10.358;2024-01-07T05:58:32;98414.44;;;27.58;nan
74524;BME280;63074;44.696;10.358;2024-01-07T06:00:59;98417.75;;;28.03;nan
74524;BME280;63074;44.696;10.358;2024-01-07T06:03:26;98419.84;;;28.95;nan
74524;BME280;63074;44.696;10.358;2024-01-07T06:05:52;98424.56;;;28.51;nan
74524;BME280;63074;44.696;10.358;2024-01-07T06:08:18;98416.66;;;27.31;nan
74524;BME280;63074;44.696;10.358;2024-01-07T06:10:45;98420.03;;;27.03;nan
74524;BME280;63074;44.696;10.358;2024-01-07T06:13:11;98414.31;;;25.94;nan
74524;BME280;63074;44.696;10.358;2024-01-07T06:15:37;98414.41;;;24.62;nan
74524;BME280;63074;44.696;10.358;2024-01-07T06:18:03;98413.72;;;25.77;nan
74524;BME280;63074;44.696;10.358;2024-01-07T06:20:30;98414.38;;;24.84;nan
74524;BME280;63074;44.696;10.358;2024-01-07T06:22:56;98414.22;;;25.56;nan
74524;BME280;63074;44.696;10.358;2024-01-07T06:25:22;98413.38;;;25.22;nan
74524;BME280;63074;44.696;10.358;2024-01-07T06:27:50;98418.00;;;22.73;nan
74524;BME280;63074;44.696;10.358;2024-01-07T06:30:17;98421.72;;;23.50;nan
74524;BME280;63074;44.696;10.358;2024-01-07T06:32:45;98418.13;;;24.73;nan
74524;BME280;63074;44.696;10.358;2024-01-07T06:35:11;98421.72;;;25.00;nan
74524;BME280;63074;44.696;10.358;2024-01-07T06:37:38;98423.72;;;24.53;nan
74524;BME280;63074;44.696;10.358;2024-01-07T06:40:04;98428.03;;;25.30;nan
74524;BME280;63074;44.696;10.358;2024-01-07T06:42:30;98429.88;;;26.53;nan
74524;BME280;63074;44.696;10.358;2024-01-07T06:44:57;98434.09;;;26.43;nan
74524;BME280;63074;44.696;10.358;2024-01-07T06:47:23;98436.00;;;26.80;nan
74524;BME280;63074;44.696;10.358;2024-01-07T06:49:49;98431.88;;;26.56;nan
74524;BME280;63074;44.696;10.358;2024-01-07T06:52:15;98427.97;;;25.27;nan
74524;BME280;63074;44.696;10.358;2024-01-07T06:54:41;98531.66;;;48.00;nan
74524;BME280;63074;44.696;10.358;2024-01-07T06:57:07;98440.06;;;38.14;nan
74524;BME280;63074;44.696;10.358;2024-01-07T06:59:34;98420.00;;;29.82;nan
74524;BME280;63074;44.696;10.358;2024-01-07T07:02:00;98432.47;;;29.03;nan
74524;BME280;63074;44.696;10.358;2024-01-07T07:04:26;98431.50;;;30.95;nan
74524;BME280;63074;44.696;10.358;2024-01-07T07:06:52;98436.81;;;29.00;nan
74524;BME280;63074;44.696;10.358;2024-01-07T07:09:19;98443.13;;;28.94;nan
74524;BME280;63074;44.696;10.358;2024-01-07T07:11:45;98442.50;;;29.91;nan
74524;BME280;63074;44.696;10.358;2024-01-07T07:14:11;98442.84;;;30.66;nan
74524;BME280;63074;44.696;10.358;2024-01-07T07:16:38;98444.31;;;28.96;nan
74524;BME280;63074;44.696;10.358;2024-01-07T07:19:04;98454.25;;;32.79;nan
74524;BME280;63074;44.696;10.358;2024-01-07T07:21:30;98451.41;;;31.68;nan
74524;BME280;63074;44.696;10.358;2024-01-07T07:23:56;98455.09;;;30.72;nan
74524;BME280;63074;44.696;10.358;2024-01-07T07:26:23;98453.28;;;31.41;nan
74524;BME280;63074;44.696;10.358;2024-01-07T07:28:49;98462.41;;;30.41;nan
74524;BME280;63074;44.696;10.358;2024-01-07T07:31:15;98453.31;;;29.57;nan
74524;BME280;63074;44.696;10.358;2024-01-07T07:33:41;98452.31;;;30.10;nan
74524;BME280;63074;44.696;10.358;2024-01-07T07:36:08;98456.06;;;30.44;nan
74524;BME280;63074;44.696;10.358;2024-01-07T07:38:34;98471.31;;;30.04;nan
74524;BME280;63074;44.696;10.358;2024-01-07T07:41:01;98464.75;;;31.02;nan
74524;BME280;63074;44.696;10.358;2024-01-07T07:43:27;98491.00;;;37.47;nan
74524;BME280;63074;44.696;10.358;2024-01-07T07:45:54;98480.59;;;33.84;nan
74524;BME280;63074;44.696;10.358;2024-01-07T07:48:20;98483.06;;;36.73;nan
74524;BME280;63074;44.696;10.358;2024-01-07T07:50:46;98488.72;;;37.21;nan
74524;BME280;63074;44.696;10.358;2024-01-07T07:53:12;98487.22;;;32.81;nan
74524;BME280;63074;44.696;10.358;2024-01-07T07:55:39;98481.97;;;32.33;nan
74524;BME280;63074;44.696;10.358;2024-01-07T07:58:05;98479.88;;;29.01;nan
74524;BME280;63074;44.696;10.358;2024-01-07T08:00:31;98471.06;;;27.38;nan
74524;BME280;63074;44.696;10.358;2024-01-07T08:02:57;98471.53;;;29.30;nan
74524;BME280;63074;44.696;10.358;2024-01-07T08:05:23;98481.81;;;25.28;nan
74524;BME280;63074;44.696;10.358;2024-01-07T08:07:49;98482.66;;;25.62;nan
74524;BME280;63074;44.696;10.358;2024-01-07T08:10:16;98483.03;;;27.60;nan
74524;BME280;63074;44.696;10.358;2024-01-07T08:12:42;98484.91;;;28.32;nan
74524;BME280;63074;44.696;10.358;2024-01-07T08:15:08;98507.22;;;32.42;nan
74524;BME280;63074;44.696;10.358;2024-01-07T08:17:34;98496.28;;;24.14;nan
74524;BME280;63074;44.696;10.358;2024-01-07T08:20:01;98495.41;;;24.48;nan
74524;BME280;63074;44.696;10.358;2024-01-07T08:22:27;98493.16;;;24.77;nan
74524;BME280;63074;44.696;10.358;2024-01-07T08:24:53;98491.78;;;22.22;nan
74524;BME280;63074;44.696;10.358;2024-01-07T08:27:20;98491.09;;;24.09;nan
74524;BME280;63074;44.696;10.358;2024-01-07T08:29:46;98504.66;;;24.40;nan
74524;BME280;63074;44.696;10.358;2024-01-07T08:32:12;98500.53;;;23.38;nan
74524;BME280;63074;44.696;10.358;2024-01-07T08:34:39;98500.91;;;22.57;nan
74524;BME280;63074;44.696;10.358;2024-01-07T08:37:08;98502.63;;;23.44;nan
74524;BME280;63074;44.696;10.358;2024-01-07T08:39:35;98507.69;;;24.16;nan
74524;BME280;63074;44.696;10.358;2024-01-07T08:42:01;98509.00;;;24.22;nan
74524;BME280;63074;44.696;10.358;2024-01-07T08:44:29;98503.19;;;24.92;nan
74524;BME280;63074;44.696;10.358;2024-01-07T08:46:56;98506.47;;;26.40;nan
74524;BME280;63074;44.696;10.358;2024-01-07T08:49:22;98512.31;;;24.50;nan
74524;BME280;63074;44.696;10.358;2024-01-07T08:51:48;98516.44;;;24.86;nan
74524;BME280;63074;44.696;10.358;2024-01-07T08:54:14;98513.56;;;25.25;nan
74524;BME280;63074;44.696;10.358;2024-01-07T08:56:40;98511.19;;;25.23;nan
74524;BME280;63074;44.696;10.358;2024-01-07T08:59:06;98511.50;;;25.71;nan
74524;BME280;63074;44.696;10.358;2024-01-07T09:01:34;98517.09;;;25.78;nan
74524;BME280;63074;44.696;10.358;2024-01-07T09:04:00;98519.69;;;24.69;nan
74524;BME280;63074;44.696;10.358;2024-01-07T09:06:26;98524.66;;;25.06;nan
74524;BME280;63074;44.696;10.358;2024-01-07T09:08:52;98526.97;;;24.19;nan
74524;BME280;63074;44.696;10.358;2024-01-07T09:11:19;98520.69;;;24.00;nan
74524;BME280;63074;44.696;10.358;2024-01-07T09:13:45;98533.59;;;24.57;nan
74524;BME280;63074;44.696;10.358;2024-01-07T09:16:14;98539.84;;;34.44;nan
74524;BME280;63074;44.696;10.358;2024-01-07T09:18:41;98547.41;;;29.50;nan
74524;BME280;63074;44.696;10.358;2024-01-07T09:21:10;98545.66;;;31.41;nan
74524;BME280;63074;44.696;10.358;2024-01-07T09:23:36;98561.19;;;28.79;nan
74524;BME280;63074;44.696;10.358;2024-01-07T09:28:29;98548.06;;;22.67;nan
74524;BME280;63074;44.696;10.358;2024-01-07T09:30:55;98549.38;;;20.01;nan
74524;BME280;63074;44.696;10.358;2024-01-07T09:33:21;98543.13;;;21.48;nan
74524;BME280;63074;44.696;10.358;2024-01-07T09:35:50;98545.00;;;21.84;nan
74524;BME280;63074;44.696;10.358;2024-01-07T09:38:16;98540.97;;;21.05;nan
74524;BME280;63074;44.696;10.358;2024-01-07T09:40:43;98548.31;;;25.37;nan
74524;BME280;63074;44.696;10.358;2024-01-07T09:43:09;98547.72;;;24.36;nan
74524;BME280;63074;44.696;10.358;2024-01-07T09:45:38;98543.16;;;23.19;nan
74524;BME280;63074;44.696;10.358;2024-01-07T09:48:05;98545.59;;;23.91;nan
74524;BME280;63074;44.696;10.358;2024-01-07T09:50:31;98547.50;;;23.20;nan
74524;BME280;63074;44.696;10.358;2024-01-07T09:52:58;98542.81;;;23.37;nan
74524;BME280;63074;44.696;10.358;2024-01-07T09:58:25;98549.09;;;24.69;nan
74524;BME280;63074;44.696;10.358;2024-01-07T10:00:52;98549.56;;;27.00;nan
74524;BME280;63074;44.696;10.358;2024-01-07T10:03:19;98542.38;;;23.70;nan
74524;BME280;63074;44.696;10.358;2024-01-07T10:05:45;98564.91;;;36.90;nan
74524;BME280;63074;44.696;10.358;2024-01-07T10:08:11;98565.81;;;33.59;nan
74524;BME280;63074;44.696;10.358;2024-01-07T10:10:37;98557.47;;;31.90;nan
74524;BME280;63074;44.696;10.358;2024-01-07T10:13:05;98545.84;;;34.63;nan
74524;BME280;63074;44.696;10.358;2024-01-07T10:15:32;98548.97;;;29.69;nan
74524;BME280;63074;44.696;10.358;2024-01-07T10:18:06;98551.91;;;32.85;nan
74524;BME280;63074;44.696;10.358;2024-01-07T10:20:35;98552.25;;;31.13;nan
74524;BME280;63074;44.696;10.358;2024-01-07T10:23:05;98564.44;;;33.47;nan
74524;BME280;63074;44.696;10.358;2024-01-07T10:25:32;98560.06;;;28.87;nan
74524;BME280;63074;44.696;10.358;2024-01-07T10:28:02;98556.91;;;28.85;nan
74524;BME280;63074;44.696;10.358;2024-01-07T10:30:29;98577.34;;;13.65;nan
74524;BME280;63074;44.696;10.358;2024-01-07T10:32:58;98571.44;;;13.44;nan
74524;BME280;63074;44.696;10.358;2024-01-07T10:35:32;98564.94;;;13.45;nan
74524;BME280;63074;44.696;10.358;2024-01-07T10:37:59;98557.81;;;14.25;nan
74524;BME280;63074;44.696;10.358;2024-01-07T10:40:27;98555.81;;;14.95;nan
74524;BME280;63074;44.696;10.358;2024-01-07T10:42:55;98555.03;;;14.48;nan
74524;BME280;63074;44.696;10.358;2024-01-07T10:45:22;98552.28;;;14.67;nan
74524;BME280;63074;44.696;10.358;2024-01-07T10:47:50;98556.28;;;13.67;nan
74524;BME280;63074;44.696;10.358;2024-01-07T10:50:19;98548.59;;;14.91;nan
74524;BME280;63074;44.696;10.358;2024-01-07T10:52:58;98537.41;;;14.51;nan
74524;BME280;63074;44.696;10.358;2024-01-07T10:55:33;98547.25;;;14.61;nan
74524;BME280;63074;44.696;10.358;2024-01-07T10:57:59;98538.94;;;15.39;nan
74524;BME280;63074;44.696;10.358;2024-01-07T11:00:26;98548.19;;;12.77;nan
74524;BME280;63074;44.696;10.358;2024-01-07T11:09:28;98532.75;;;12.59;nan
74524;BME280;63074;44.696;10.358;2024-01-07T11:11:59;98534.84;;;16.67;nan
74524;BME280;63074;44.696;10.358;2024-01-07T11:17:06;98529.75;;;14.85;nan
74524;BME280;63074;44.696;10.358;2024-01-07T11:19:33;98521.78;;;15.58;nan
74524;BME280;63074;44.696;10.358;2024-01-07T11:22:23;98532.59;;;32.13;nan
74524;BME280;63074;44.696;10.358;2024-01-07T11:24:51;98532.56;;;28.14;nan
74524;BME280;63074;44.696;10.358;2024-01-07T11:27:17;98530.75;;;28.58;nan
74524;BME280;63074;44.696;10.358;2024-01-07T11:29:43;98525.44;;;28.10;nan
74524;BME280;63074;44.696;10.358;2024-01-07T11:32:13;98520.00;;;27.51;nan
74524;BME280;63074;44.696;10.358;2024-01-07T11:34:43;98522.91;;;28.92;nan
74524;BME280;63074;44.696;10.358;2024-01-07T11:37:12;98522.84;;;28.63;nan
74524;BME280;63074;44.696;10.358;2024-01-07T11:39:46;98522.50;;;26.01;nan
74524;BME280;63074;44.696;10.358;2024-01-07T11:42:12;98513.66;;;25.85;nan
74524;BME280;63074;44.696;10.358;2024-01-07T11:44:49;98524.63;;;26.15;nan
74524;BME280;63074;44.696;10.358;2024-01-07T11:47:19;98518.13;;;23.52;nan
74524;BME280;63074;44.696;10.358;2024-01-07T11:49:45;98580.72;;;32.68;nan
74524;BME280;63074;44.696;10.358;2024-01-07T11:52:12;98527.19;;;28.64;nan
74524;BME280;63074;44.696;10.358;2024-01-07T11:54:39;98520.03;;;27.55;nan
74524;BME280;63074;44.696;10.358;2024-01-07T11:57:06;98522.00;;;24.44;nan
74524;BME280;63074;44.696;10.358;2024-01-07T11:59:34;98520.25;;;24.17;nan
74524;BME280;63074;44.696;10.358;2024-01-07T12:02:01;98521.50;;;24.39;nan
74524;BME280;63074;44.696;10.358;2024-01-07T12:04:30;98519.66;;;23.18;nan
74524;BME280;63074;44.696;10.358;2024-01-07T12:07:02;98518.72;;;23.46;nan
74524;BME280;63074;44.696;10.358;2024-01-07T12:09:29;98516.50;;;25.36;nan
74524;BME280;63074;44.696;10.358;2024-01-07T12:11:56;98515.88;;;25.23;nan
74524;BME280;63074;44.696;10.358;2024-01-07T12:14:23;98520.91;;;26.30;nan
74524;BME280;63074;44.696;10.358;2024-01-07T12:16:53;98555.53;;;26.68;nan
74524;BME280;63074;44.696;10.358;2024-01-07T12:19:22;98531.41;;;18.70;nan
74524;BME280;63074;44.696;10.358;2024-01-07T12:22:06;98541.78;;;32.07;nan
74524;BME280;63074;44.696;10.358;2024-01-07T12:24:33;98521.63;;;28.39;nan
74524;BME280;63074;44.696;10.358;2024-01-07T12:27:08;98519.03;;;26.08;nan
74524;BME280;63074;44.696;10.358;2024-01-07T12:29:41;98520.97;;;24.52;nan
74524;BME280;63074;44.696;10.358;2024-01-07T12:32:07;98515.75;;;22.72;nan
74524;BME280;63074;44.696;10.358;2024-01-07T12:34:39;98526.84;;;29.19;nan
74524;BME280;63074;44.696;10.358;2024-01-07T12:37:06;98524.13;;;29.44;nan
74524;BME280;63074;44.696;10.358;2024-01-07T12:39:38;98532.63;;;32.71;nan
74524;BME280;63074;44.696;10.358;2024-01-07T12:42:04;98520.38;;;27.43;nan
74524;BME280;63074;44.696;10.358;2024-01-07T12:44:33;98511.69;;;27.44;nan
74524;BME280;63074;44.696;10.358;2024-01-07T12:46:59;98523.78;;;27.87;nan
74524;BME280;63074;44.696;10.358;2024-01-07T12:49:25;98523.19;;;27.57;nan
74524;BME280;63074;44.696;10.358;2024-01-07T12:51:52;98526.94;;;26.80;nan
74524;BME280;63074;44.696;10.358;2024-01-07T12:54:18;98511.75;;;25.89;nan
74524;BME280;63074;44.696;10.358;2024-01-07T12:56:45;98513.41;;;26.68;nan
74524;BME280;63074;44.696;10.358;2024-01-07T12:59:11;98510.19;;;27.57;nan
74524;BME280;63074;44.696;10.358;2024-01-07T13:01:37;98517.25;;;27.55;nan
74524;BME280;63074;44.696;10.358;2024-01-07T13:04:04;98520.75;;;26.53;nan
74524;BME280;63074;44.696;10.358;2024-01-07T13:06:30;98521.97;;;26.22;nan
74524;BME280;63074;44.696;10.358;2024-01-07T13:08:56;98524.44;;;25.71;nan
74524;BME280;63074;44.696;10.358;2024-01-07T13:11:23;98526.41;;;25.67;nan
74524;BME280;63074;44.696;10.358;2024-01-07T13:13:49;98527.38;;;21.98;nan
74524;BME280;63074;44.696;10.358;2024-01-07T13:16:15;98527.41;;;24.02;nan
74524;BME280;63074;44.696;10.358;2024-01-07T13:18:41;98524.13;;;21.03;nan